sensor_id;sensor_type;location;lat;lon;timestamp;P1;durP1;ratioP1;P2;durP2;ratioP2
1987;SDS011;12775;46.994;15.498;2024-01-25T00:01:07;7.16;;;5.12;;
1987;SDS011;12775;46.994;15.498;2024-01-25T00:03:35;6.24;;;3.72;;
1987;SDS011;12775;46.994;15.498;2024-01-25T00:06:04;4.86;;;4.30;;
1987;SDS011;12775;46.994;15.498;2024-01-25T00:08:29;4.92;;;4.26;;
1987;SDS011;12775;46.994;15.498;2024-01-25T00:10:57;6.42;;;4.86;;
1987;SDS011;12775;46.994;15.498;2024-01-25T00:13:25;4.84;;;4.44;;
1987;SDS011;12775;46.994;15.498;2024-01-25T00:15:53;8.48;;;5.02;;
1987;SDS011;12775;46.994;15.498;2024-01-25T00:18:21;7.06;;;5.86;;
1987;SDS011;12775;46.994;15.498;2024-01-25T00:20:48;7.76;;;5.40;;
1987;SDS011;12775;46.994;15.498;2024-01-25T00:23:15;4.84;;;4.44;;
1987;SDS011;12775;46.994;15.498;2024-01-25T00:25:43;4.68;;;4.24;;
1987;SDS011;12775;46.994;15.498;2024-01-25T00:28:10;4.12;;;3.64;;
1987;SDS011;12775;46.994;15.498;2024-01-25T00:30:38;6.50;;;3.50;;
1987;SDS011;12775;46.994;15.498;2024-01-25T00:33:04;4.30;;;3.90;;
1987;SDS011;12775;46.994;15.498;2024-01-25T00:35:31;5.46;;;4.96;;
1987;SDS011;12775;46.994;15.498;2024-01-25T00:37:59;4.86;;;4.46;;
1987;SDS011;12775;46.994;15.498;2024-01-25T00:40:26;5.92;;;5.30;;
1987;SDS011;12775;46.994;15.498;2024-01-25T00:42:53;9.18;;;5.12;;
1987;SDS011;12775;46.994;15.498;2024-01-25T00:45:20;6.32;;;4.62;;
1987;SDS011;12775;46.994;15.498;2024-01-25T00:47:47;5.04;;;4.46;;
1987;SDS011;12775;46.994;15.498;2024-01-25T00:50:15;6.28;;;4.24;;
1987;SDS011;12775;46.994;15.498;2024-01-25T00:52:44;4.42;;;4.08;;
1987;SDS011;12775;46.994;15.498;2024-01-25T00:55:11;5.58;;;4.02;;
1987;SDS011;12775;46.994;15.498;2024-01-25T00:57:39;5.50;;;3.88;;
1987;SDS011;12775;46.994;15.498;2024-01-25T01:00:07;5.30;;;4.14;;
1987;SDS011;12775;46.994;15.498;2024-01-25T01:02:36;7.06;;;3.78;;
1987;SDS011;12775;46.994;15.498;2024-01-25T01:05:02;3.82;;;3.52;;
1987;SDS011;12775;46.994;15.498;2024-01-25T01:07:29;4.82;;;4.32;;
1987;SDS011;12775;46.994;15.498;2024-01-25T01:09:56;3.70;;;3.36;;
1987;SDS011;12775;46.994;15.498;2024-01-25T01:12:23;3.40;;;3.08;;
1987;SDS011;12775;46.994;15.498;2024-01-25T01:14:50;3.86;;;2.98;;
1987;SDS011;12775;46.994;15.498;2024-01-25T01:17:16;4.48;;;3.22;;
1987;SDS011;12775;46.994;15.498;2024-01-25T01:19:44;6.68;;;4.44;;
1987;SDS011;12775;46.994;15.498;2024-01-25T01:22:11;4.60;;;3.58;;
1987;SDS011;12775;46.994;15.498;2024-01-25T01:24:38;3.50;;;2.62;;
1987;SDS011;12775;46.994;15.498;2024-01-25T01:27:06;4.06;;;3.08;;
1987;SDS011;12775;46.994;15.498;2024-01-25T01:29:33;3.76;;;3.32;;
1987;SDS011;12775;46.994;15.498;2024-01-25T01:32:00;3.66;;;2.96;;
1987;SDS011;12775;46.994;15.498;2024-01-25T01:34:28;3.42;;;3.10;;
1987;SDS011;12775;46.994;15.498;2024-01-25T01:36:55;3.58;;;3.28;;
1987;SDS011;12775;46.994;15.498;2024-01-25T01:39:22;6.88;;;3.74;;
1987;SDS011;12775;46.994;15.498;2024-01-25T01:41:50;6.76;;;4.20;;
1987;SDS011;12775;46.994;15.498;2024-01-25T01:44:17;4.72;;;3.48;;
1987;SDS011;12775;46.994;15.498;2024-01-25T01:46:44;4.48;;;3.16;;
1987;SDS011;12775;46.994;15.498;2024-01-25T01:49:12;5.48;;;3.56;;
1987;SDS011;12775;46.994;15.498;2024-01-25T01:51:39;3.48;;;3.10;;
1987;SDS011;12775;46.994;15.498;2024-01-25T01:54:06;7.08;;;3.52;;
1987;SDS011;12775;46.994;15.498;2024-01-25T01:56:33;3.48;;;3.16;;
1987;SDS011;12775;46.994;15.498;2024-01-25T01:58:59;3.94;;;2.96;;
1987;SDS011;12775;46.994;15.498;2024-01-25T02:01:26;5.72;;;2.70;;
1987;SDS011;12775;46.994;15.498;2024-01-25T02:03:53;3.92;;;2.92;;
1987;SDS011;12775;46.994;15.498;2024-01-25T02:06:20;3.30;;;2.98;;
1987;SDS011;12775;46.994;15.498;2024-01-25T02:08:48;2.80;;;2.30;;
1987;SDS011;12775;46.994;15.498;2024-01-25T02:11:14;3.80;;;2.60;;
1987;SDS011;12775;46.994;15.498;2024-01-25T02:13:41;5.12;;;3.02;;
1987;SDS011;12775;46.994;15.498;2024-01-25T02:16:08;8.14;;;3.44;;
1987;SDS011;12775;46.994;15.498;2024-01-25T02:18:34;2.98;;;2.68;;
1987;SDS011;12775;46.994;15.498;2024-01-25T02:21:01;4.80;;;3.18;;
1987;SDS011;12775;46.994;15.498;2024-01-25T02:23:27;4.82;;;3.76;;
1987;SDS011;12775;46.994;15.498;2024-01-25T02:25:54;4.18;;;3.24;;
1987;SDS011;12775;46.994;15.498;2024-01-25T02:28:20;3.04;;;2.72;;
1987;SDS011;12775;46.994;15.498;2024-01-25T02:30:48;4.78;;;2.32;;
1987;SDS011;12775;46.994;15.498;2024-01-25T02:33:15;4.32;;;2.94;;
1987;SDS011;12775;46.994;15.498;2024-01-25T02:35:42;4.90;;;3.38;;
1987;SDS011;12775;46.994;15.498;2024-01-25T02:38:10;6.34;;;3.50;;
1987;SDS011;12775;46.994;15.498;2024-01-25T02:40:37;6.00;;;3.68;;
1987;SDS011;12775;46.994;15.498;2024-01-25T02:43:05;4.26;;;2.82;;
1987;SDS011;12775;46.994;15.498;2024-01-25T02:45:32;5.18;;;3.62;;
1987;SDS011;12775;46.994;15.498;2024-01-25T02:47:59;4.18;;;3.56;;
1987;SDS011;12775;46.994;15.498;2024-01-25T02:50:27;5.96;;;3.50;;
1987;SDS011;12775;46.994;15.498;2024-01-25T02:52:54;4.18;;;2.72;;
1987;SDS011;12775;46.994;15.498;2024-01-25T02:55:21;3.20;;;2.90;;
1987;SDS011;12775;46.994;15.498;2024-01-25T02:57:49;6.10;;;3.98;;
1987;SDS011;12775;46.994;15.498;2024-01-25T03:00:16;5.38;;;3.56;;
1987;SDS011;12775;46.994;15.498;2024-01-25T03:02:43;7.58;;;3.76;;
1987;SDS011;12775;46.994;15.498;2024-01-25T03:05:11;5.64;;;3.56;;
1987;SDS011;12775;46.994;15.498;2024-01-25T03:07:38;4.90;;;3.76;;
1987;SDS011;12775;46.994;15.498;2024-01-25T03:10:06;4.62;;;3.54;;
1987;SDS011;12775;46.994;15.498;2024-01-25T03:12:33;6.60;;;3.46;;
1987;SDS011;12775;46.994;15.498;2024-01-25T03:15:01;4.52;;;3.70;;
1987;SDS011;12775;46.994;15.498;2024-01-25T03:17:28;3.52;;;3.22;;
1987;SDS011;12775;46.994;15.498;2024-01-25T03:19:56;3.88;;;3.58;;
1987;SDS011;12775;46.994;15.498;2024-01-25T03:22:23;7.30;;;3.88;;
1987;SDS011;12775;46.994;15.498;2024-01-25T03:24:50;6.12;;;2.86;;
1987;SDS011;12775;46.994;15.498;2024-01-25T03:27:18;4.52;;;3.60;;
1987;SDS011;12775;46.994;15.498;2024-01-25T03:29:45;8.50;;;3.86;;
1987;SDS011;12775;46.994;15.498;2024-01-25T03:32:12;6.08;;;3.96;;
1987;SDS011;12775;46.994;15.498;2024-01-25T03:34:41;5.34;;;4.56;;
1987;SDS011;12775;46.994;15.498;2024-01-25T03:37:08;4.36;;;3.50;;
1987;SDS011;12775;46.994;15.498;2024-01-25T03:39:35;3.36;;;3.04;;
1987;SDS011;12775;46.994;15.498;2024-01-25T03:42:03;4.14;;;3.60;;
1987;SDS011;12775;46.994;15.498;2024-01-25T03:44:30;12.52;;;5.14;;
1987;SDS011;12775;46.994;15.498;2024-01-25T03:46:58;6.74;;;4.02;;
1987;SDS011;12775;46.994;15.498;2024-01-25T03:49:25;5.10;;;4.14;;
1987;SDS011;12775;46.994;15.498;2024-01-25T03:51:52;5.08;;;3.58;;
1987;SDS011;12775;46.994;15.498;2024-01-25T03:54:19;5.72;;;3.48;;
1987;SDS011;12775;46.994;15.498;2024-01-25T03:56:46;6.30;;;4.38;;
1987;SDS011;12775;46.994;15.498;2024-01-25T03:59:14;4.06;;;3.02;;
1987;SDS011;12775;46.994;15.498;2024-01-25T04:01:42;9.24;;;6.48;;
1987;SDS011;12775;46.994;15.498;2024-01-25T04:04:10;17.96;;;11.28;;
1987;SDS011;12775;46.994;15.498;2024-01-25T04:06:40;12.26;;;8.92;;
1987;SDS011;12775;46.994;15.498;2024-01-25T04:09:08;19.92;;;11.66;;
1987;SDS011;12775;46.994;15.498;2024-01-25T04:11:37;15.18;;;11.06;;
1987;SDS011;12775;46.994;15.498;2024-01-25T04:14:04;13.14;;;6.84;;
1987;SDS011;12775;46.994;15.498;2024-01-25T04:16:32;9.00;;;6.34;;
1987;SDS011;12775;46.994;15.498;2024-01-25T04:18:59;6.56;;;5.74;;
1987;SDS011;12775;46.994;15.498;2024-01-25T04:21:27;8.36;;;5.36;;
1987;SDS011;12775;46.994;15.498;2024-01-25T04:23:54;7.68;;;5.26;;
1987;SDS011;12775;46.994;15.498;2024-01-25T04:26:21;6.52;;;5.90;;
1987;SDS011;12775;46.994;15.498;2024-01-25T04:28:49;5.60;;;4.86;;
1987;SDS011;12775;46.994;15.498;2024-01-25T04:31:16;9.98;;;6.60;;
1987;SDS011;12775;46.994;15.498;2024-01-25T04:33:44;13.56;;;6.10;;
1987;SDS011;12775;46.994;15.498;2024-01-25T04:36:11;8.30;;;5.28;;
1987;SDS011;12775;46.994;15.498;2024-01-25T04:38:38;9.34;;;5.10;;
1987;SDS011;12775;46.994;15.498;2024-01-25T04:41:05;4.34;;;4.04;;
1987;SDS011;12775;46.994;15.498;2024-01-25T04:43:34;6.48;;;4.98;;
1987;SDS011;12775;46.994;15.498;2024-01-25T04:46:00;5.84;;;3.90;;
1987;SDS011;12775;46.994;15.498;2024-01-25T04:48:28;7.20;;;5.42;;
1987;SDS011;12775;46.994;15.498;2024-01-25T04:50:57;7.02;;;5.14;;
1987;SDS011;12775;46.994;15.498;2024-01-25T04:53:23;5.72;;;4.82;;
1987;SDS011;12775;46.994;15.498;2024-01-25T04:55:50;5.94;;;5.38;;
1987;SDS011;12775;46.994;15.498;2024-01-25T04:58:18;12.90;;;8.42;;
1987;SDS011;12775;46.994;15.498;2024-01-25T05:00:45;10.36;;;7.78;;
1987;SDS011;12775;46.994;15.498;2024-01-25T05:03:13;11.90;;;7.42;;
1987;SDS011;12775;46.994;15.498;2024-01-25T05:05:40;9.14;;;7.06;;
1987;SDS011;12775;46.994;15.498;2024-01-25T05:08:07;7.44;;;5.82;;
1987;SDS011;12775;46.994;15.498;2024-01-25T05:10:35;11.74;;;5.24;;
1987;SDS011;12775;46.994;15.498;2024-01-25T05:13:01;10.12;;;5.96;;
1987;SDS011;12775;46.994;15.498;2024-01-25T05:15:28;8.56;;;6.36;;
1987;SDS011;12775;46.994;15.498;2024-01-25T05:17:54;6.54;;;5.02;;
1987;SDS011;12775;46.994;15.498;2024-01-25T05:20:22;10.26;;;8.00;;
1987;SDS011;12775;46.994;15.498;2024-01-25T05:22:49;12.52;;;10.16;;
1987;SDS011;12775;46.994;15.498;2024-01-25T05:25:16;7.78;;;6.34;;
1987;SDS011;12775;46.994;15.498;2024-01-25T05:27:44;10.16;;;6.16;;
1987;SDS011;12775;46.994;15.498;2024-01-25T05:30:11;9.78;;;6.82;;
1987;SDS011;12775;46.994;15.498;2024-01-25T05:32:39;3.28;;;2.86;;
1987;SDS011;12775;46.994;15.498;2024-01-25T05:35:07;4.76;;;2.40;;
1987;SDS011;12775;46.994;15.498;2024-01-25T05:37:34;5.06;;;3.12;;
1987;SDS011;12775;46.994;15.498;2024-01-25T05:40:02;4.94;;;2.82;;
1987;SDS011;12775;46.994;15.498;2024-01-25T05:42:29;3.42;;;2.28;;
1987;SDS011;12775;46.994;15.498;2024-01-25T05:44:55;6.08;;;4.66;;
1987;SDS011;12775;46.994;15.498;2024-01-25T05:47:22;6.56;;;5.40;;
1987;SDS011;12775;46.994;15.498;2024-01-25T05:49:49;7.44;;;4.94;;
1987;SDS011;12775;46.994;15.498;2024-01-25T05:52:15;8.42;;;5.34;;
1987;SDS011;12775;46.994;15.498;2024-01-25T05:54:42;4.74;;;3.66;;
1987;SDS011;12775;46.994;15.498;2024-01-25T05:57:09;4.74;;;3.38;;
1987;SDS011;12775;46.994;15.498;2024-01-25T05:59:36;4.98;;;3.82;;
1987;SDS011;12775;46.994;15.498;2024-01-25T06:02:03;17.40;;;11.34;;
1987;SDS011;12775;46.994;15.498;2024-01-25T06:04:30;8.22;;;5.14;;
1987;SDS011;12775;46.994;15.498;2024-01-25T06:06:57;6.38;;;3.92;;
1987;SDS011;12775;46.994;15.498;2024-01-25T06:09:24;4.64;;;2.86;;
1987;SDS011;12775;46.994;15.498;2024-01-25T06:11:52;5.18;;;2.96;;
1987;SDS011;12775;46.994;15.498;2024-01-25T06:14:19;6.38;;;4.68;;
1987;SDS011;12775;46.994;15.498;2024-01-25T06:16:46;11.28;;;6.46;;
1987;SDS011;12775;46.994;15.498;2024-01-25T06:19:14;1.20;;;0.98;;
1987;SDS011;12775;46.994;15.498;2024-01-25T06:21:41;1.04;;;0.94;;
1987;SDS011;12775;46.994;15.498;2024-01-25T06:24:08;1.74;;;1.10;;
1987;SDS011;12775;46.994;15.498;2024-01-25T06:26:36;2.02;;;1.66;;
1987;SDS011;12775;46.994;15.498;2024-01-25T06:29:03;5.92;;;1.52;;
1987;SDS011;12775;46.994;15.498;2024-01-25T06:31:31;0.90;;;0.82;;
1987;SDS011;12775;46.994;15.498;2024-01-25T06:33:58;3.76;;;1.44;;
1987;SDS011;12775;46.994;15.498;2024-01-25T06:36:25;1.08;;;0.80;;
1987;SDS011;12775;46.994;15.498;2024-01-25T06:38:53;2.30;;;1.20;;
1987;SDS011;12775;46.994;15.498;2024-01-25T06:41:19;1.06;;;0.96;;
1987;SDS011;12775;46.994;15.498;2024-01-25T06:43:47;2.20;;;1.12;;
1987;SDS011;12775;46.994;15.498;2024-01-25T06:46:14;1.06;;;0.80;;
1987;SDS011;12775;46.994;15.498;2024-01-25T06:48:41;7.16;;;1.44;;
1987;SDS011;12775;46.994;15.498;2024-01-25T06:51:09;2.88;;;1.64;;
1987;SDS011;12775;46.994;15.498;2024-01-25T06:53:36;4.58;;;2.58;;
1987;SDS011;12775;46.994;15.498;2024-01-25T06:56:04;5.50;;;3.54;;
1987;SDS011;12775;46.994;15.498;2024-01-25T06:58:31;6.94;;;2.90;;
1987;SDS011;12775;46.994;15.498;2024-01-25T07:00:57;6.70;;;4.04;;
1987;SDS011;12775;46.994;15.498;2024-01-25T07:03:24;3.68;;;3.14;;
1987;SDS011;12775;46.994;15.498;2024-01-25T07:05:52;6.92;;;3.62;;
1987;SDS011;12775;46.994;15.498;2024-01-25T07:08:19;5.54;;;3.18;;
1987;SDS011;12775;46.994;15.498;2024-01-25T07:10:47;3.44;;;3.12;;
1987;SDS011;12775;46.994;15.498;2024-01-25T07:13:14;2.58;;;1.20;;
1987;SDS011;12775;46.994;15.498;2024-01-25T07:15:41;2.58;;;1.60;;
1987;SDS011;12775;46.994;15.498;2024-01-25T07:18:09;2.00;;;1.32;;
1987;SDS011;12775;46.994;15.498;2024-01-25T07:20:36;2.36;;;2.16;;
1987;SDS011;12775;46.994;15.498;2024-01-25T07:23:04;2.18;;;1.52;;
1987;SDS011;12775;46.994;15.498;2024-01-25T07:25:32;4.18;;;2.86;;
1987;SDS011;12775;46.994;15.498;2024-01-25T07:27:59;5.94;;;3.04;;
1987;SDS011;12775;46.994;15.498;2024-01-25T07:30:26;4.82;;;2.76;;
1987;SDS011;12775;46.994;15.498;2024-01-25T07:32:54;5.24;;;4.38;;
1987;SDS011;12775;46.994;15.498;2024-01-25T07:35:21;4.44;;;2.64;;
1987;SDS011;12775;46.994;15.498;2024-01-25T07:37:48;4.66;;;3.06;;
1987;SDS011;12775;46.994;15.498;2024-01-25T07:40:15;5.06;;;2.58;;
1987;SDS011;12775;46.994;15.498;2024-01-25T07:42:42;3.14;;;2.00;;
1987;SDS011;12775;46.994;15.498;2024-01-25T07:45:10;4.32;;;3.02;;
1987;SDS011;12775;46.994;15.498;2024-01-25T07:47:37;3.80;;;2.32;;
1987;SDS011;12775;46.994;15.498;2024-01-25T07:50:05;2.76;;;2.54;;
1987;SDS011;12775;46.994;15.498;2024-01-25T07:52:32;4.16;;;2.84;;
1987;SDS011;12775;46.994;15.498;2024-01-25T07:54:58;2.02;;;1.78;;
1987;SDS011;12775;46.994;15.498;2024-01-25T07:57:25;6.04;;;3.30;;
1987;SDS011;12775;46.994;15.498;2024-01-25T07:59:52;4.42;;;2.30;;
1987;SDS011;12775;46.994;15.498;2024-01-25T08:02:18;3.20;;;2.14;;
1987;SDS011;12775;46.994;15.498;2024-01-25T08:04:45;2.54;;;1.10;;
1987;SDS011;12775;46.994;15.498;2024-01-25T08:07:11;1.80;;;1.20;;
1987;SDS011;12775;46.994;15.498;2024-01-25T08:09:38;1.20;;;1.00;;
1987;SDS011;12775;46.994;15.498;2024-01-25T08:12:05;1.60;;;1.22;;
1987;SDS011;12775;46.994;15.498;2024-01-25T08:14:32;1.10;;;1.00;;
1987;SDS011;12775;46.994;15.498;2024-01-25T08:16:59;2.36;;;1.18;;
1987;SDS011;12775;46.994;15.498;2024-01-25T08:19:27;1.42;;;1.32;;
1987;SDS011;12775;46.994;15.498;2024-01-25T08:21:54;1.70;;;1.10;;
1987;SDS011;12775;46.994;15.498;2024-01-25T08:24:21;1.64;;;1.02;;
1987;SDS011;12775;46.994;15.498;2024-01-25T08:26:49;1.48;;;1.38;;
1987;SDS011;12775;46.994;15.498;2024-01-25T08:29:16;1.92;;;1.38;;
1987;SDS011;12775;46.994;15.498;2024-01-25T08:31:44;3.02;;;1.78;;
1987;SDS011;12775;46.994;15.498;2024-01-25T08:34:13;2.98;;;1.68;;
1987;SDS011;12775;46.994;15.498;2024-01-25T08:36:40;1.20;;;1.10;;
1987;SDS011;12775;46.994;15.498;2024-01-25T08:39:07;0.80;;;0.70;;
1987;SDS011;12775;46.994;15.498;2024-01-25T08:41:35;1.10;;;0.96;;
1987;SDS011;12775;46.994;15.498;2024-01-25T08:44:02;0.70;;;0.50;;
1987;SDS011;12775;46.994;15.498;2024-01-25T08:46:29;0.90;;;0.50;;
1987;SDS011;12775;46.994;15.498;2024-01-25T08:48:56;1.16;;;0.78;;
1987;SDS011;12775;46.994;15.498;2024-01-25T08:51:23;0.74;;;0.54;;
1987;SDS011;12775;46.994;15.498;2024-01-25T08:53:50;0.70;;;0.54;;
1987;SDS011;12775;46.994;15.498;2024-01-25T08:56:17;0.60;;;0.50;;
1987;SDS011;12775;46.994;15.498;2024-01-25T08:58:44;1.24;;;0.74;;
1987;SDS011;12775;46.994;15.498;2024-01-25T09:01:11;3.54;;;1.20;;
1987;SDS011;12775;46.994;15.498;2024-01-25T09:03:39;0.80;;;0.50;;
1987;SDS011;12775;46.994;15.498;2024-01-25T09:06:06;2.20;;;0.50;;
1987;SDS011;12775;46.994;15.498;2024-01-25T09:08:33;2.10;;;0.50;;
1987;SDS011;12775;46.994;15.498;2024-01-25T09:11:01;1.74;;;1.18;;
1987;SDS011;12775;46.994;15.498;2024-01-25T09:13:28;0.78;;;0.50;;
1987;SDS011;12775;46.994;15.498;2024-01-25T09:15:55;0.70;;;0.42;;
1987;SDS011;12775;46.994;15.498;2024-01-25T09:18:22;1.58;;;0.60;;
1987;SDS011;12775;46.994;15.498;2024-01-25T09:20:50;0.70;;;0.44;;
1987;SDS011;12775;46.994;15.498;2024-01-25T09:23:17;1.54;;;0.50;;
1987;SDS011;12775;46.994;15.498;2024-01-25T09:25:45;0.86;;;0.50;;
1987;SDS011;12775;46.994;15.498;2024-01-25T09:28:12;1.86;;;0.80;;
1987;SDS011;12775;46.994;15.498;2024-01-25T09:30:41;3.68;;;0.68;;
1987;SDS011;12775;46.994;15.498;2024-01-25T09:33:07;2.30;;;0.60;;
1987;SDS011;12775;46.994;15.498;2024-01-25T09:35:35;2.72;;;0.70;;
1987;SDS011;12775;46.994;15.498;2024-01-25T09:38:02;0.60;;;0.50;;
1987;SDS011;12775;46.994;15.498;2024-01-25T09:40:30;0.80;;;0.60;;
1987;SDS011;12775;46.994;15.498;2024-01-25T09:42:57;1.16;;;0.78;;
1987;SDS011;12775;46.994;15.498;2024-01-25T09:45:24;1.10;;;0.96;;
1987;SDS011;12775;46.994;15.498;2024-01-25T09:47:52;1.54;;;0.54;;
1987;SDS011;12775;46.994;15.498;2024-01-25T09:50:19;1.78;;;1.32;;
1987;SDS011;12775;46.994;15.498;2024-01-25T09:52:49;3.68;;;1.00;;
1987;SDS011;12775;46.994;15.498;2024-01-25T09:55:13;3.84;;;1.34;;
1987;SDS011;12775;46.994;15.498;2024-01-25T09:57:41;5.52;;;1.00;;
1987;SDS011;12775;46.994;15.498;2024-01-25T10:00:08;4.94;;;1.02;;
1987;SDS011;12775;46.994;15.498;2024-01-25T10:02:36;5.16;;;1.02;;
1987;SDS011;12775;46.994;15.498;2024-01-25T10:05:04;3.30;;;1.08;;
1987;SDS011;12775;46.994;15.498;2024-01-25T10:07:35;1.62;;;0.68;;
1987;SDS011;12775;46.994;15.498;2024-01-25T10:10:02;1.42;;;0.68;;
1987;SDS011;12775;46.994;15.498;2024-01-25T10:12:30;2.16;;;0.96;;
1987;SDS011;12775;46.994;15.498;2024-01-25T10:14:57;2.94;;;1.04;;
1987;SDS011;12775;46.994;15.498;2024-01-25T10:17:24;2.92;;;0.86;;
1987;SDS011;12775;46.994;15.498;2024-01-25T10:19:51;5.38;;;1.08;;
1987;SDS011;12775;46.994;15.498;2024-01-25T10:22:18;1.64;;;0.84;;
1987;SDS011;12775;46.994;15.498;2024-01-25T10:24:45;7.38;;;1.30;;
1987;SDS011;12775;46.994;15.498;2024-01-25T10:27:13;3.42;;;1.36;;
1987;SDS011;12775;46.994;15.498;2024-01-25T10:29:40;1.38;;;0.70;;
1987;SDS011;12775;46.994;15.498;2024-01-25T10:32:08;6.12;;;1.24;;
1987;SDS011;12775;46.994;15.498;2024-01-25T10:34:35;3.80;;;0.88;;
1987;SDS011;12775;46.994;15.498;2024-01-25T10:37:03;1.90;;;1.30;;
1987;SDS011;12775;46.994;15.498;2024-01-25T10:39:31;3.66;;;1.28;;
1987;SDS011;12775;46.994;15.498;2024-01-25T10:41:58;2.78;;;1.44;;
1987;SDS011;12775;46.994;15.498;2024-01-25T10:44:24;2.46;;;1.38;;
1987;SDS011;12775;46.994;15.498;2024-01-25T10:46:50;4.12;;;1.76;;
1987;SDS011;12775;46.994;15.498;2024-01-25T10:49:17;4.52;;;1.54;;
1987;SDS011;12775;46.994;15.498;2024-01-25T10:51:44;5.44;;;1.28;;
1987;SDS011;12775;46.994;15.498;2024-01-25T10:54:12;3.08;;;1.20;;
1987;SDS011;12775;46.994;15.498;2024-01-25T10:56:41;3.06;;;0.94;;
1987;SDS011;12775;46.994;15.498;2024-01-25T10:59:10;3.60;;;1.56;;
1987;SDS011;12775;46.994;15.498;2024-01-25T11:01:36;1.60;;;1.38;;
1987;SDS011;12775;46.994;15.498;2024-01-25T11:04:11;4.20;;;1.42;;
1987;SDS011;12775;46.994;15.498;2024-01-25T11:06:36;3.94;;;1.50;;
1987;SDS011;12775;46.994;15.498;2024-01-25T11:09:04;3.84;;;1.50;;
1987;SDS011;12775;46.994;15.498;2024-01-25T11:11:32;2.50;;;1.46;;
1987;SDS011;12775;46.994;15.498;2024-01-25T11:13:59;2.56;;;1.34;;
1987;SDS011;12775;46.994;15.498;2024-01-25T11:16:29;4.22;;;1.14;;
1987;SDS011;12775;46.994;15.498;2024-01-25T11:18:56;1.52;;;1.00;;
1987;SDS011;12775;46.994;15.498;2024-01-25T11:21:25;2.24;;;1.70;;
1987;SDS011;12775;46.994;15.498;2024-01-25T11:24:01;4.50;;;1.80;;
1987;SDS011;12775;46.994;15.498;2024-01-25T11:26:27;6.42;;;1.46;;
1987;SDS011;12775;46.994;15.498;2024-01-25T11:28:54;3.28;;;1.24;;
1987;SDS011;12775;46.994;15.498;2024-01-25T11:31:21;5.10;;;1.46;;
1987;SDS011;12775;46.994;15.498;2024-01-25T11:33:48;3.28;;;2.48;;
1987;SDS011;12775;46.994;15.498;2024-01-25T11:36:15;3.50;;;1.30;;
1987;SDS011;12775;46.994;15.498;2024-01-25T11:38:42;4.72;;;1.58;;
1987;SDS011;12775;46.994;15.498;2024-01-25T11:41:09;4.40;;;1.34;;
1987;SDS011;12775;46.994;15.498;2024-01-25T11:43:36;4.32;;;1.20;;
1987;SDS011;12775;46.994;15.498;2024-01-25T11:46:04;2.32;;;1.72;;
1987;SDS011;12775;46.994;15.498;2024-01-25T11:48:31;5.60;;;1.34;;
1987;SDS011;12775;46.994;15.498;2024-01-25T11:50:58;5.16;;;1.30;;
1987;SDS011;12775;46.994;15.498;2024-01-25T11:53:24;4.20;;;1.98;;
1987;SDS011;12775;46.994;15.498;2024-01-25T11:55:52;5.06;;;3.06;;
1987;SDS011;12775;46.994;15.498;2024-01-25T11:58:19;11.24;;;2.18;;
1987;SDS011;12775;46.994;15.498;2024-01-25T12:00:46;8.30;;;2.00;;
1987;SDS011;12775;46.994;15.498;2024-01-25T12:03:14;2.40;;;1.36;;
1987;SDS011;12775;46.994;15.498;2024-01-25T12:05:41;3.68;;;1.20;;
1987;SDS011;12775;46.994;15.498;2024-01-25T12:08:09;4.38;;;1.26;;
1987;SDS011;12775;46.994;15.498;2024-01-25T12:10:36;3.44;;;1.20;;
1987;SDS011;12775;46.994;15.498;2024-01-25T12:13:03;5.32;;;1.48;;
1987;SDS011;12775;46.994;15.498;2024-01-25T12:15:32;2.22;;;0.84;;
1987;SDS011;12775;46.994;15.498;2024-01-25T12:17:59;4.12;;;2.06;;
1987;SDS011;12775;46.994;15.498;2024-01-25T12:20:26;5.84;;;1.52;;
1987;SDS011;12775;46.994;15.498;2024-01-25T12:22:54;1.86;;;1.36;;
1987;SDS011;12775;46.994;15.498;2024-01-25T12:25:21;3.66;;;1.44;;
1987;SDS011;12775;46.994;15.498;2024-01-25T12:27:48;2.66;;;1.36;;
1987;SDS011;12775;46.994;15.498;2024-01-25T12:30:16;8.28;;;2.04;;
1987;SDS011;12775;46.994;15.498;2024-01-25T12:32:43;4.38;;;1.30;;
1987;SDS011;12775;46.994;15.498;2024-01-25T12:35:10;5.26;;;1.54;;
1987;SDS011;12775;46.994;15.498;2024-01-25T12:37:38;3.36;;;1.30;;
1987;SDS011;12775;46.994;15.498;2024-01-25T12:40:06;1.72;;;1.00;;
1987;SDS011;12775;46.994;15.498;2024-01-25T12:42:33;4.02;;;1.40;;
1987;SDS011;12775;46.994;15.498;2024-01-25T12:45:00;5.84;;;2.58;;
1987;SDS011;12775;46.994;15.498;2024-01-25T12:47:28;3.68;;;1.42;;
1987;SDS011;12775;46.994;15.498;2024-01-25T12:49:55;1.96;;;1.02;;
1987;SDS011;12775;46.994;15.498;2024-01-25T12:52:22;4.06;;;1.38;;
1987;SDS011;12775;46.994;15.498;2024-01-25T12:54:50;3.50;;;1.90;;
1987;SDS011;12775;46.994;15.498;2024-01-25T12:57:17;3.96;;;1.18;;
1987;SDS011;12775;46.994;15.498;2024-01-25T12:59:44;1.90;;;1.20;;
1987;SDS011;12775;46.994;15.498;2024-01-25T13:02:11;6.00;;;1.42;;
1987;SDS011;12775;46.994;15.498;2024-01-25T13:04:38;2.00;;;1.32;;
1987;SDS011;12775;46.994;15.498;2024-01-25T13:07:04;3.22;;;1.80;;
1987;SDS011;12775;46.994;15.498;2024-01-25T13:09:31;6.04;;;1.88;;
1987;SDS011;12775;46.994;15.498;2024-01-25T13:11:58;5.16;;;1.88;;
1987;SDS011;12775;46.994;15.498;2024-01-25T13:14:25;2.52;;;1.24;;
1987;SDS011;12775;46.994;15.498;2024-01-25T13:16:53;5.40;;;2.40;;
1987;SDS011;12775;46.994;15.498;2024-01-25T13:19:20;7.02;;;1.86;;
1987;SDS011;12775;46.994;15.498;2024-01-25T13:21:48;4.48;;;1.44;;
1987;SDS011;12775;46.994;15.498;2024-01-25T13:24:15;3.42;;;1.98;;
1987;SDS011;12775;46.994;15.498;2024-01-25T13:26:42;1.66;;;1.40;;
1987;SDS011;12775;46.994;15.498;2024-01-25T13:29:10;4.34;;;2.22;;
1987;SDS011;12775;46.994;15.498;2024-01-25T13:31:38;1.90;;;1.30;;
1987;SDS011;12775;46.994;15.498;2024-01-25T13:34:05;1.84;;;1.34;;
1987;SDS011;12775;46.994;15.498;2024-01-25T13:36:32;7.22;;;1.94;;
1987;SDS011;12775;46.994;15.498;2024-01-25T13:38:58;4.18;;;2.06;;
1987;SDS011;12775;46.994;15.498;2024-01-25T13:41:26;5.18;;;2.14;;
1987;SDS011;12775;46.994;15.498;2024-01-25T13:43:51;3.30;;;1.50;;
1987;SDS011;12775;46.994;15.498;2024-01-25T13:46:18;4.36;;;1.86;;
1987;SDS011;12775;46.994;15.498;2024-01-25T13:48:45;2.74;;;1.12;;
1987;SDS011;12775;46.994;15.498;2024-01-25T13:51:12;4.72;;;1.80;;
1987;SDS011;12775;46.994;15.498;2024-01-25T13:53:38;4.22;;;1.62;;
1987;SDS011;12775;46.994;15.498;2024-01-25T13:56:05;12.10;;;2.08;;
1987;SDS011;12775;46.994;15.498;2024-01-25T13:58:32;4.46;;;1.48;;
1987;SDS011;12775;46.994;15.498;2024-01-25T14:01:00;4.52;;;1.10;;
1987;SDS011;12775;46.994;15.498;2024-01-25T14:03:27;6.74;;;1.28;;
1987;SDS011;12775;46.994;15.498;2024-01-25T14:05:55;4.36;;;2.40;;
1987;SDS011;12775;46.994;15.498;2024-01-25T14:08:21;3.48;;;1.78;;
1987;SDS011;12775;46.994;15.498;2024-01-25T14:10:48;5.98;;;2.12;;
1987;SDS011;12775;46.994;15.498;2024-01-25T14:13:14;3.62;;;1.52;;
1987;SDS011;12775;46.994;15.498;2024-01-25T14:15:41;4.12;;;1.48;;
1987;SDS011;12775;46.994;15.498;2024-01-25T14:18:08;4.96;;;1.82;;
1987;SDS011;12775;46.994;15.498;2024-01-25T14:20:35;3.82;;;1.60;;
1987;SDS011;12775;46.994;15.498;2024-01-25T14:23:02;3.66;;;1.54;;
1987;SDS011;12775;46.994;15.498;2024-01-25T14:25:30;4.22;;;1.76;;
1987;SDS011;12775;46.994;15.498;2024-01-25T14:27:57;4.80;;;2.06;;
1987;SDS011;12775;46.994;15.498;2024-01-25T14:30:24;2.60;;;1.58;;
1987;SDS011;12775;46.994;15.498;2024-01-25T14:32:52;3.54;;;1.80;;
1987;SDS011;12775;46.994;15.498;2024-01-25T14:35:19;4.34;;;1.48;;
1987;SDS011;12775;46.994;15.498;2024-01-25T14:37:47;5.26;;;1.90;;
1987;SDS011;12775;46.994;15.498;2024-01-25T14:40:14;3.58;;;1.36;;
1987;SDS011;12775;46.994;15.498;2024-01-25T14:42:42;12.34;;;2.40;;
1987;SDS011;12775;46.994;15.498;2024-01-25T14:45:09;4.32;;;1.54;;
1987;SDS011;12775;46.994;15.498;2024-01-25T14:47:37;1.74;;;0.94;;